NCY weather

Annecy-Haute-Savoie-Mont Blanc Airport
Annecy/Meythet, Rhône Alpes, France

Public forecast

Using degrees Celsius for public forecast. Weather courtesy of forecast.io.

METAR (pilot weather report)

Retrieved 2019/09/21 10:30 UTC (0 seconds ago):

LFLP 211030Z AUTO 27003KT 170V330 CAVOK 20/11 Q1019 NOSIG

TAF (pilot weather forecast)

Retrieved 2019/09/21 09:00 UTC (1 hour ago):

TAF LFLP 210800Z 2109/2209 VRB02KT CAVOK